createdAt,value
2018-12-03T00:01:52.954Z,0.00
2018-12-03T00:02:52.902Z,0.00
2018-12-03T00:04:49.547Z,0.00
2018-12-03T00:05:49.507Z,0.00
2018-12-03T00:07:46.308Z,0.00
2018-12-03T00:08:46.246Z,0.00
2018-12-03T00:10:42.635Z,0.00
2018-12-03T00:11:42.578Z,0.00
2018-12-03T00:13:39.445Z,0.00
2018-12-03T00:14:39.399Z,0.00
2018-12-03T00:16:35.308Z,0.00
2018-12-03T00:17:34.801Z,0.00
2018-12-03T00:19:31.642Z,0.00
2018-12-03T00:20:31.600Z,0.00
2018-12-03T00:22:27.547Z,0.00
2018-12-03T00:23:27.493Z,0.00
2018-12-03T00:25:34.194Z,0.00
2018-12-03T00:26:34.140Z,0.00
2018-12-03T00:28:29.561Z,0.00
2018-12-03T00:29:29.519Z,0.00
2018-12-03T00:31:25.862Z,0.00
2018-12-03T00:32:25.804Z,0.00
2018-12-03T00:34:21.602Z,0.00
2018-12-03T00:35:21.564Z,0.00
2018-12-03T00:37:16.999Z,0.00
2018-12-03T00:38:16.949Z,0.00
2018-12-03T00:40:11.481Z,0.00
2018-12-03T00:41:11.438Z,0.00
2018-12-03T00:43:05.835Z,0.00
2018-12-03T00:44:05.783Z,0.00
2018-12-03T00:46:01.398Z,0.00
2018-12-03T00:47:01.361Z,0.00
2018-12-03T00:48:56.754Z,0.00
2018-12-03T00:49:56.712Z,0.00
2018-12-03T00:51:52.505Z,0.00
2018-12-03T00:52:52.451Z,0.00
2018-12-03T00:54:47.829Z,0.00
2018-12-03T00:55:47.796Z,0.00
2018-12-03T00:57:43.292Z,0.00
2018-12-03T00:58:43.241Z,0.00
2018-12-03T01:00:39.724Z,0.00
2018-12-03T01:01:39.521Z,0.00
2018-12-03T01:03:34.885Z,0.00
2018-12-03T01:04:34.842Z,0.00
2018-12-03T01:06:30.250Z,0.00
2018-12-03T01:07:30.196Z,0.00
2018-12-03T01:09:25.503Z,0.00
2018-12-03T01:10:25.463Z,0.00
2018-12-03T01:12:20.910Z,0.00
2018-12-03T01:13:20.860Z,0.00
2018-12-03T01:15:16.236Z,0.00
2018-12-03T01:16:16.195Z,0.00
2018-12-03T01:18:11.621Z,0.00
2018-12-03T01:19:11.572Z,0.00
2018-12-03T01:21:07.151Z,0.00
2018-12-03T01:22:07.102Z,0.00
2018-12-03T01:24:04.168Z,0.00
2018-12-03T01:25:04.122Z,0.00
2018-12-03T01:27:01.370Z,0.00
2018-12-03T01:28:01.317Z,0.00
2018-12-03T01:29:57.254Z,0.00
2018-12-03T01:30:57.201Z,0.00
2018-12-03T01:32:52.779Z,0.00
2018-12-03T01:33:52.725Z,0.00
2018-12-03T01:35:48.116Z,0.00
2018-12-03T01:36:48.064Z,0.00
2018-12-03T01:38:43.489Z,0.00
2018-12-03T01:39:43.448Z,0.00
2018-12-03T01:41:38.857Z,0.00
2018-12-03T01:42:38.801Z,0.00
2018-12-03T01:44:34.223Z,0.00
2018-12-03T01:45:34.180Z,0.00
2018-12-03T01:47:30.689Z,0.00
2018-12-03T01:48:30.635Z,0.00
2018-12-03T01:50:26.137Z,0.00
2018-12-03T01:51:26.084Z,0.00
2018-12-03T01:53:21.498Z,0.00
2018-12-03T01:54:21.443Z,0.00
2018-12-03T01:56:16.882Z,0.00
2018-12-03T01:57:16.834Z,0.00
2018-12-03T01:59:12.523Z,0.00
2018-12-03T02:00:12.481Z,0.00
2018-12-03T02:02:19.465Z,0.00
2018-12-03T02:03:19.412Z,0.00
2018-12-03T02:05:15.976Z,0.00
2018-12-03T02:06:15.933Z,0.00
2018-12-03T02:08:12.294Z,0.00
2018-12-03T02:09:12.266Z,0.00
2018-12-03T02:11:08.785Z,0.00
2018-12-03T02:12:08.748Z,0.00
2018-12-03T02:14:05.560Z,0.00
2018-12-03T02:15:05.501Z,0.00
2018-12-03T02:17:01.086Z,0.00
2018-12-03T02:18:01.023Z,0.00
2018-12-03T02:19:56.523Z,0.00
2018-12-03T02:20:56.484Z,0.00
2018-12-03T02:22:51.895Z,0.00
2018-12-03T02:23:51.846Z,0.00
2018-12-03T02:25:48.250Z,0.00
2018-12-03T02:26:48.207Z,0.00
2018-12-03T02:28:44.629Z,0.00
2018-12-03T02:29:44.570Z,0.00
2018-12-03T02:31:40.896Z,0.00
2018-12-03T02:32:40.857Z,0.00
2018-12-03T02:34:38.275Z,0.00
2018-12-03T02:35:37.979Z,0.00
2018-12-03T02:37:34.442Z,0.00
2018-12-03T02:38:34.365Z,0.00
2018-12-03T02:40:30.896Z,0.00
2018-12-03T02:41:30.850Z,0.00
2018-12-03T02:43:27.198Z,0.00
2018-12-03T02:44:27.150Z,0.00
2018-12-03T02:46:24.112Z,0.00
2018-12-03T02:47:24.068Z,0.00
2018-12-03T02:49:20.616Z,0.00
2018-12-03T02:50:20.559Z,0.00
2018-12-03T02:52:15.938Z,0.00
2018-12-03T02:53:15.901Z,0.00
2018-12-03T02:55:11.747Z,0.00
2018-12-03T02:56:11.690Z,0.00
2018-12-03T02:58:08.094Z,0.00
2018-12-03T02:59:08.042Z,0.00
2018-12-03T03:01:04.378Z,0.00
2018-12-03T03:02:04.336Z,0.00
2018-12-03T03:03:59.755Z,0.00
2018-12-03T03:04:59.724Z,0.00
2018-12-03T03:06:56.051Z,0.00
2018-12-03T03:07:56.335Z,0.00
2018-12-03T03:09:51.378Z,0.00
2018-12-03T03:10:51.334Z,0.00
2018-12-03T03:12:47.689Z,0.00
2018-12-03T03:13:47.646Z,0.00
2018-12-03T03:15:44.004Z,0.00
2018-12-03T03:16:43.951Z,0.00
2018-12-03T03:18:39.613Z,0.00
2018-12-03T03:19:39.560Z,0.00
2018-12-03T03:21:35.921Z,0.00
2018-12-03T03:22:35.880Z,0.00
2018-12-03T03:24:30.893Z,0.00
2018-12-03T03:25:30.833Z,0.00
2018-12-03T03:27:26.246Z,0.00
2018-12-03T03:28:26.205Z,0.00
2018-12-03T03:30:22.112Z,0.00
2018-12-03T03:31:22.055Z,0.00
2018-12-03T03:33:18.430Z,0.00
2018-12-03T03:34:18.375Z,0.00
2018-12-03T03:36:15.705Z,0.00
2018-12-03T03:37:15.660Z,0.00
2018-12-03T03:39:12.355Z,0.00
2018-12-03T03:40:12.320Z,0.00
2018-12-03T03:42:09.965Z,0.00
2018-12-03T03:43:09.921Z,0.00
2018-12-03T03:45:06.253Z,0.00
2018-12-03T03:46:06.205Z,0.00
2018-12-03T03:48:03.036Z,0.00
2018-12-03T03:49:02.989Z,0.00
2018-12-03T03:50:59.676Z,0.00
2018-12-03T03:51:59.629Z,0.00
2018-12-03T03:53:56.020Z,0.00
2018-12-03T03:54:55.967Z,0.00
2018-12-03T03:56:52.342Z,0.00
2018-12-03T03:57:52.301Z,0.00
2018-12-03T03:59:48.680Z,0.00
2018-12-03T04:00:48.628Z,0.00
2018-12-03T04:02:44.608Z,0.00
2018-12-03T04:03:44.561Z,0.00
2018-12-03T04:05:41.067Z,0.00
2018-12-03T04:06:41.013Z,0.00
2018-12-03T04:08:37.858Z,0.00
2018-12-03T04:09:37.819Z,0.00
2018-12-03T04:11:34.131Z,0.00
2018-12-03T04:12:34.072Z,0.00
2018-12-03T04:14:30.650Z,0.00
2018-12-03T04:15:30.597Z,0.00
2018-12-03T04:17:26.354Z,0.00
2018-12-03T04:18:26.309Z,0.00
2018-12-03T04:20:22.645Z,0.00
2018-12-03T04:21:22.649Z,0.00
2018-12-03T04:23:19.579Z,0.00
2018-12-03T04:24:19.538Z,0.00
2018-12-03T04:26:15.359Z,0.00
2018-12-03T04:27:15.307Z,0.00
2018-12-03T04:29:12.459Z,0.00
2018-12-03T04:30:12.391Z,0.00
2018-12-03T04:32:08.737Z,0.00
2018-12-03T04:33:08.775Z,0.00
2018-12-03T04:35:05.341Z,0.00
2018-12-03T04:36:05.287Z,0.00
2018-12-03T04:38:01.635Z,0.00
2018-12-03T04:39:01.587Z,0.00
2018-12-03T04:40:57.931Z,0.00
2018-12-03T04:41:57.882Z,0.00
2018-12-03T04:43:53.320Z,0.00
2018-12-03T04:44:53.275Z,0.00
2018-12-03T04:46:49.591Z,0.00
2018-12-03T04:47:49.541Z,0.00
2018-12-03T04:49:45.886Z,0.00
2018-12-03T04:50:45.849Z,0.00
2018-12-03T04:52:41.435Z,0.00
2018-12-03T04:53:41.378Z,0.00
2018-12-03T04:55:37.990Z,0.00
2018-12-03T04:56:37.939Z,0.00
2018-12-03T04:58:33.377Z,0.00
2018-12-03T04:59:33.340Z,0.00
2018-12-03T05:01:30.193Z,0.00
2018-12-03T05:02:30.136Z,0.00
2018-12-03T05:04:26.482Z,0.00
2018-12-03T05:05:26.440Z,0.00
2018-12-03T05:07:24.580Z,0.00
2018-12-03T05:08:24.511Z,0.00
2018-12-03T05:10:21.527Z,0.00
2018-12-03T05:11:21.502Z,0.00
2018-12-03T05:13:18.785Z,0.00
2018-12-03T05:14:18.737Z,0.00
2018-12-03T05:16:15.475Z,0.00
2018-12-03T05:17:15.423Z,0.00
2018-12-03T05:19:12.053Z,0.00
2018-12-03T05:20:12.022Z,0.00
2018-12-03T05:22:08.354Z,0.00
2018-12-03T05:23:08.309Z,0.00
2018-12-03T05:25:04.604Z,0.00
2018-12-03T05:26:04.562Z,0.00
2018-12-03T05:28:00.982Z,0.00
2018-12-03T05:29:00.857Z,0.00
2018-12-03T05:30:57.189Z,0.00
2018-12-03T05:31:57.162Z,0.00
2018-12-03T05:33:53.756Z,0.00
2018-12-03T05:36:36.626Z,0.00
2018-12-03T05:37:36.581Z,0.00
2018-12-03T05:39:32.093Z,0.00
2018-12-03T05:40:32.040Z,0.00
2018-12-03T05:42:27.429Z,0.00
2018-12-03T05:43:27.378Z,0.00
2018-12-03T05:45:24.434Z,0.00
2018-12-03T05:46:24.389Z,0.00
2018-12-03T05:48:19.892Z,0.00
2018-12-03T05:49:19.847Z,0.00
2018-12-03T05:51:15.321Z,0.00
2018-12-03T05:52:15.281Z,0.00
2018-12-03T05:54:10.675Z,0.00
2018-12-03T05:55:10.619Z,0.00
2018-12-03T05:57:06.046Z,0.00
2018-12-03T05:58:06.000Z,0.00
2018-12-03T06:00:02.346Z,0.00
2018-12-03T06:01:02.295Z,0.00
2018-12-03T06:02:57.663Z,0.00
2018-12-03T06:03:57.610Z,0.00
2018-12-03T06:05:53.086Z,0.00
2018-12-03T06:06:53.047Z,0.00
2018-12-03T06:09:02.173Z,0.00
2018-12-03T06:10:02.117Z,0.00
2018-12-03T06:11:57.885Z,0.00
2018-12-03T06:12:57.847Z,0.00
2018-12-03T06:14:54.219Z,0.00
2018-12-03T06:15:54.177Z,0.00
2018-12-03T06:17:50.559Z,0.00
2018-12-03T06:18:50.515Z,0.00
2018-12-03T06:20:47.709Z,0.00
2018-12-03T06:21:47.649Z,0.00
2018-12-03T06:23:44.135Z,0.00
2018-12-03T06:24:44.088Z,0.00
2018-12-03T06:26:40.479Z,0.00
2018-12-03T06:27:40.439Z,0.00
2018-12-03T06:29:37.273Z,0.00
2018-12-03T06:30:37.216Z,0.00
2018-12-03T06:32:34.145Z,0.00
2018-12-03T06:33:34.120Z,0.00
2018-12-03T06:35:30.492Z,0.00
2018-12-03T06:36:30.438Z,0.00
2018-12-03T06:38:27.971Z,0.00
2018-12-03T06:39:27.926Z,0.00
2018-12-03T06:41:24.782Z,0.00
2018-12-03T06:42:24.720Z,0.00
2018-12-03T06:44:22.312Z,0.00
2018-12-03T06:45:22.241Z,0.00
2018-12-03T06:47:18.732Z,0.00
2018-12-03T06:48:18.584Z,0.00
2018-12-03T06:50:15.265Z,0.00
2018-12-03T06:51:15.220Z,0.00
2018-12-03T06:53:11.558Z,0.00
2018-12-03T06:54:11.530Z,0.00
2018-12-03T06:56:07.946Z,0.00
2018-12-03T06:57:07.895Z,0.00
2018-12-03T06:59:04.210Z,0.00
2018-12-03T07:00:04.167Z,0.00
2018-12-03T07:02:10.842Z,0.00
2018-12-03T07:03:10.790Z,0.00
2018-12-03T07:05:07.828Z,0.00
2018-12-03T07:06:07.780Z,0.00
2018-12-03T07:08:03.181Z,0.00
2018-12-03T07:09:03.139Z,0.00
2018-12-03T07:10:59.033Z,0.00
2018-12-03T07:11:58.982Z,5.63
2018-12-03T07:13:54.338Z,5.63
2018-12-03T07:14:54.282Z,5.63
2018-12-03T07:16:51.348Z,5.63
2018-12-03T07:17:51.248Z,5.63
2018-12-03T07:19:46.614Z,11.25
2018-12-03T07:20:46.570Z,11.25
2018-12-03T07:22:42.315Z,11.25
2018-12-03T07:23:42.263Z,11.25
2018-12-03T07:25:38.239Z,16.88
2018-12-03T07:26:38.187Z,16.88
2018-12-03T07:28:35.239Z,16.88
2018-12-03T07:29:35.194Z,16.88
2018-12-03T07:31:31.636Z,22.50
2018-12-03T07:32:31.580Z,22.50
2018-12-03T07:34:27.966Z,22.50
2018-12-03T07:35:27.920Z,22.50
2018-12-03T07:37:24.357Z,22.50
2018-12-03T07:38:24.298Z,22.50
2018-12-03T07:40:19.894Z,22.50
2018-12-03T07:41:19.850Z,28.13
2018-12-03T07:43:15.215Z,33.75
2018-12-03T07:44:15.143Z,39.38
2018-12-03T07:46:10.616Z,45.00
2018-12-03T07:47:10.566Z,45.00
2018-12-03T07:49:06.876Z,56.25
2018-12-03T07:50:06.834Z,50.63
2018-12-03T07:52:03.729Z,50.63
2018-12-03T07:53:03.671Z,50.63
2018-12-03T07:54:59.324Z,56.25
2018-12-03T07:55:59.280Z,56.25
2018-12-03T07:57:55.691Z,56.25
2018-12-03T07:58:55.638Z,56.25
2018-12-03T08:00:51.758Z,90.00
2018-12-03T08:01:51.703Z,78.75
2018-12-03T08:04:00.877Z,56.25
2018-12-03T08:05:00.821Z,56.25
2018-12-03T08:06:57.292Z,56.25
2018-12-03T08:07:57.236Z,50.63
2018-12-03T08:09:53.912Z,56.25
2018-12-03T08:10:53.865Z,78.75
2018-12-03T08:12:50.242Z,123.75
2018-12-03T08:13:50.198Z,118.13
2018-12-03T08:15:46.529Z,118.13
2018-12-03T08:16:46.483Z,106.88
2018-12-03T08:18:42.826Z,101.25
2018-12-03T08:19:42.772Z,90.00
2018-12-03T08:21:40.413Z,101.25
2018-12-03T08:22:40.334Z,112.50
2018-12-03T08:24:37.892Z,101.25
2018-12-03T08:25:37.840Z,90.00
2018-12-03T08:27:34.587Z,90.00
2018-12-03T08:28:34.547Z,78.75
2018-12-03T08:30:32.952Z,56.25
2018-12-03T08:31:33.136Z,50.63
2018-12-03T08:33:29.761Z,39.38
2018-12-03T08:34:29.701Z,33.75
2018-12-03T08:36:26.866Z,33.75
2018-12-03T08:37:26.822Z,45.00
2018-12-03T08:39:23.176Z,90.00
2018-12-03T08:40:23.115Z,118.13
2018-12-03T08:42:19.991Z,90.00
2018-12-03T08:43:19.938Z,95.63
2018-12-03T08:45:16.319Z,118.13
2018-12-03T08:46:16.275Z,129.38
2018-12-03T08:48:11.727Z,118.13
2018-12-03T08:49:11.711Z,106.88
2018-12-03T08:51:07.088Z,135.00
2018-12-03T08:52:07.056Z,140.63
2018-12-03T08:54:03.564Z,151.88
2018-12-03T08:55:03.529Z,163.13
2018-12-03T08:57:00.028Z,163.13
2018-12-03T08:57:59.976Z,163.13
2018-12-03T08:59:56.044Z,140.63
2018-12-03T09:00:55.987Z,151.88
2018-12-03T09:02:52.624Z,151.88
2018-12-03T09:03:52.546Z,168.75
2018-12-03T09:05:49.440Z,146.25
2018-12-03T09:06:49.398Z,168.75
2018-12-03T09:08:45.811Z,168.75
2018-12-03T09:09:45.760Z,180.00
2018-12-03T09:11:42.799Z,163.13
2018-12-03T09:12:42.753Z,168.75
2018-12-03T09:14:39.396Z,135.00
2018-12-03T09:15:39.386Z,135.00
2018-12-03T09:17:36.114Z,135.00
2018-12-03T09:18:36.080Z,135.00
2018-12-03T09:20:32.829Z,146.25
2018-12-03T09:21:32.775Z,191.25
2018-12-03T09:23:29.837Z,163.13
2018-12-03T09:24:29.793Z,140.63
2018-12-03T09:26:25.250Z,135.00
2018-12-03T09:27:26.237Z,140.63
2018-12-03T09:29:23.775Z,123.75
2018-12-03T09:30:27.535Z,135.00
2018-12-03T09:32:17.978Z,163.13
2018-12-03T09:33:18.950Z,219.38
2018-12-03T09:35:15.083Z,174.38
2018-12-03T09:36:15.024Z,196.88
2018-12-03T09:38:11.349Z,185.63
2018-12-03T09:39:11.306Z,123.75
2018-12-03T09:41:07.659Z,118.13
2018-12-03T09:42:07.609Z,101.25
2018-12-03T09:44:04.509Z,129.38
2018-12-03T09:45:04.453Z,90.00
2018-12-03T09:46:59.870Z,106.88
2018-12-03T09:47:59.829Z,140.63
2018-12-03T09:49:57.800Z,106.88
2018-12-03T09:50:57.750Z,118.13
2018-12-03T09:52:54.140Z,157.50
2018-12-03T09:53:54.095Z,191.25
2018-12-03T09:55:50.563Z,151.88
2018-12-03T09:56:50.506Z,163.13
2018-12-03T09:58:47.056Z,191.25
2018-12-03T09:59:47.020Z,236.25
2018-12-03T10:01:55.303Z,196.88
2018-12-03T10:02:55.252Z,208.13
2018-12-03T10:04:52.106Z,146.25
2018-12-03T10:05:52.035Z,151.88
2018-12-03T10:07:48.379Z,196.88
2018-12-03T10:08:48.341Z,219.38
2018-12-03T10:10:45.042Z,185.63
2018-12-03T10:11:44.941Z,230.63
2018-12-03T10:13:41.801Z,225.00
2018-12-03T10:14:41.758Z,230.63
2018-12-03T10:16:39.284Z,219.38
2018-12-03T10:17:39.231Z,219.38
2018-12-03T10:19:35.609Z,264.38
2018-12-03T10:20:35.563Z,264.38
2018-12-03T10:22:31.947Z,219.38
2018-12-03T10:23:31.892Z,213.75
2018-12-03T10:25:27.476Z,236.25
2018-12-03T10:26:27.405Z,281.25
2018-12-03T10:28:22.769Z,253.13
2018-12-03T10:29:22.725Z,247.50
2018-12-03T10:31:18.136Z,202.50
2018-12-03T10:32:18.084Z,241.88
2018-12-03T10:34:13.527Z,208.13
2018-12-03T10:35:13.486Z,191.25
2018-12-03T10:37:08.910Z,202.50
2018-12-03T10:38:08.854Z,151.88
2018-12-03T10:40:04.758Z,185.63
2018-12-03T10:41:04.714Z,196.88
2018-12-03T10:43:01.423Z,236.25
2018-12-03T10:44:01.372Z,213.75
2018-12-03T10:45:57.086Z,196.88
2018-12-03T10:46:57.030Z,208.13
2018-12-03T10:48:53.833Z,135.00
2018-12-03T10:49:53.792Z,219.38
2018-12-03T10:51:49.245Z,185.63
2018-12-03T10:52:49.196Z,168.75
2018-12-03T10:54:46.238Z,129.38
2018-12-03T10:55:46.194Z,157.50
2018-12-03T10:57:42.121Z,253.13
2018-12-03T10:58:42.071Z,247.50
2018-12-03T11:00:37.733Z,241.88
2018-12-03T11:01:37.694Z,247.50
2018-12-03T11:03:33.085Z,213.75
2018-12-03T11:04:33.031Z,230.63
2018-12-03T11:06:28.512Z,168.75
2018-12-03T11:07:28.463Z,129.38
2018-12-03T11:09:23.911Z,135.00
2018-12-03T11:10:23.867Z,112.50
2018-12-03T11:12:19.637Z,84.38
2018-12-03T11:13:19.585Z,78.75
2018-12-03T11:15:14.980Z,67.50
2018-12-03T11:16:14.936Z,61.88
2018-12-03T11:18:09.977Z,84.38
2018-12-03T11:19:09.924Z,78.75
2018-12-03T11:21:05.337Z,151.88
2018-12-03T11:22:05.298Z,174.38
2018-12-03T11:24:02.218Z,202.50
2018-12-03T11:25:02.158Z,236.25
2018-12-03T11:26:58.666Z,236.25
2018-12-03T11:27:58.615Z,241.88
2018-12-03T11:29:54.168Z,225.00
2018-12-03T11:30:54.123Z,191.25
2018-12-03T11:32:49.627Z,191.25
2018-12-03T11:33:49.576Z,140.63
2018-12-03T11:35:44.539Z,123.75
2018-12-03T11:36:44.493Z,129.38
2018-12-03T11:38:41.009Z,185.63
2018-12-03T11:39:40.957Z,213.75
2018-12-03T11:41:36.372Z,281.25
2018-12-03T11:42:36.331Z,326.25
2018-12-03T11:44:31.778Z,315.00
2018-12-03T11:45:31.728Z,292.50
2018-12-03T11:47:27.090Z,241.88
2018-12-03T11:48:27.036Z,241.88
2018-12-03T11:50:22.420Z,225.00
2018-12-03T11:51:22.379Z,270.00
2018-12-03T11:53:18.370Z,208.13
2018-12-03T11:54:17.679Z,230.63
2018-12-03T11:56:13.317Z,219.38
2018-12-03T11:57:13.278Z,303.75
2018-12-03T11:59:08.833Z,298.13
2018-12-03T12:00:08.781Z,286.88
2018-12-03T12:02:17.357Z,264.38
2018-12-03T12:03:17.315Z,241.88
2018-12-03T12:05:12.751Z,247.50
2018-12-03T12:06:12.699Z,258.75
2018-12-03T12:08:09.624Z,309.38
2018-12-03T12:09:09.575Z,343.13
2018-12-03T12:11:42.965Z,331.88
2018-12-03T12:12:43.843Z,337.50
2018-12-03T12:14:38.422Z,348.75
2018-12-03T12:15:38.370Z,365.63
2018-12-03T12:17:34.295Z,365.63
2018-12-03T12:18:34.255Z,315.00
2018-12-03T12:20:30.682Z,275.63
2018-12-03T12:21:30.625Z,286.88
2018-12-03T12:23:27.102Z,298.13
2018-12-03T12:24:27.051Z,309.38
2018-12-03T12:26:22.539Z,315.00
2018-12-03T12:27:22.497Z,292.50
2018-12-03T12:29:19.239Z,286.88
2018-12-03T12:30:19.190Z,275.63
2018-12-03T12:32:14.615Z,275.63
2018-12-03T12:33:14.573Z,275.63
2018-12-03T12:35:10.228Z,247.50
2018-12-03T12:36:10.170Z,264.38
2018-12-03T12:38:19.334Z,286.88
2018-12-03T12:39:19.272Z,270.00
2018-12-03T12:41:15.613Z,253.13
2018-12-03T12:42:15.580Z,241.88
2018-12-03T12:44:12.568Z,241.88
2018-12-03T12:45:12.522Z,225.00
2018-12-03T12:47:09.373Z,236.25
2018-12-03T12:48:09.331Z,281.25
2018-12-03T12:50:05.732Z,281.25
2018-12-03T12:51:05.682Z,264.38
2018-12-03T12:53:02.290Z,270.00
2018-12-03T12:54:02.292Z,264.38
2018-12-03T12:55:58.710Z,292.50
2018-12-03T12:56:58.663Z,281.25
2018-12-03T12:58:55.116Z,264.38
2018-12-03T12:59:55.063Z,219.38
2018-12-03T13:02:03.648Z,163.13
2018-12-03T13:03:03.604Z,163.13
2018-12-03T13:04:59.072Z,213.75
2018-12-03T13:05:59.015Z,202.50
2018-12-03T13:07:55.252Z,219.38
2018-12-03T13:08:55.210Z,180.00
2018-12-03T13:10:52.148Z,191.25
2018-12-03T13:11:52.094Z,185.63
2018-12-03T13:13:47.573Z,208.13
2018-12-03T13:14:47.454Z,219.38
2018-12-03T13:16:43.168Z,219.38
2018-12-03T13:17:43.117Z,180.00
2018-12-03T13:19:38.549Z,275.63
2018-12-03T13:20:38.506Z,253.13
2018-12-03T13:22:34.570Z,270.00
2018-12-03T13:23:34.518Z,230.63
2018-12-03T13:25:29.909Z,219.38
2018-12-03T13:26:29.906Z,213.75
2018-12-03T13:28:26.090Z,247.50
2018-12-03T13:29:26.048Z,264.38
2018-12-03T13:31:38.975Z,230.63
2018-12-03T13:32:35.616Z,236.25
2018-12-03T13:34:34.387Z,241.88
2018-12-03T13:35:31.549Z,230.63
2018-12-03T13:37:27.897Z,241.88
2018-12-03T13:38:27.844Z,270.00
2018-12-03T13:40:25.090Z,196.88
2018-12-03T13:41:25.038Z,191.25
2018-12-03T13:43:21.559Z,219.38
2018-12-03T13:44:21.525Z,230.63
2018-12-03T13:46:17.821Z,236.25
2018-12-03T13:47:17.765Z,298.13
2018-12-03T13:49:14.129Z,281.25
2018-12-03T13:50:14.083Z,270.00
2018-12-03T13:52:10.567Z,208.13
2018-12-03T13:53:10.522Z,225.00
2018-12-03T13:55:07.503Z,225.00
2018-12-03T13:56:07.461Z,202.50
2018-12-03T13:58:04.628Z,180.00
2018-12-03T13:59:04.572Z,157.50
2018-12-03T14:01:00.941Z,168.75
2018-12-03T14:02:00.884Z,196.88
2018-12-03T14:03:58.860Z,151.88
2018-12-03T14:04:58.818Z,163.13
2018-12-03T14:06:54.668Z,163.13
2018-12-03T14:07:54.613Z,157.50
2018-12-03T14:09:51.743Z,157.50
2018-12-03T14:10:51.699Z,146.25
2018-12-03T14:12:49.509Z,112.50
2018-12-03T14:15:06.172Z,112.50
2018-12-03T14:16:06.093Z,101.25
2018-12-03T14:18:02.825Z,90.00
2018-12-03T14:19:02.774Z,106.88
2018-12-03T14:20:59.363Z,106.88
2018-12-03T14:21:59.295Z,106.88
2018-12-03T14:23:56.688Z,90.00
2018-12-03T14:24:56.637Z,78.75
2018-12-03T14:26:53.206Z,78.75
2018-12-03T14:27:53.146Z,84.38
2018-12-03T14:29:50.429Z,90.00
2018-12-03T14:30:50.395Z,95.63
2018-12-03T14:32:46.738Z,95.63
2018-12-03T14:33:48.769Z,95.63
2018-12-03T14:35:43.595Z,84.38
2018-12-03T14:36:43.553Z,73.13
2018-12-03T14:38:39.991Z,61.88
2018-12-03T14:39:39.954Z,50.63
2018-12-03T14:41:38.247Z,39.38
2018-12-03T14:42:38.172Z,33.75
2018-12-03T14:44:34.956Z,28.13
2018-12-03T14:45:34.917Z,22.50
2018-12-03T14:47:30.477Z,11.25
2018-12-03T14:48:30.422Z,11.25
2018-12-03T14:50:26.776Z,11.25
2018-12-03T14:51:26.736Z,11.25
2018-12-03T14:53:23.077Z,5.63
2018-12-03T14:54:23.025Z,0.00
2018-12-03T14:56:19.968Z,0.00
2018-12-03T14:57:19.926Z,0.00
2018-12-03T14:59:16.271Z,0.00
2018-12-03T15:00:16.207Z,0.00
2018-12-03T15:02:24.355Z,5.63
2018-12-03T15:03:24.298Z,5.63
2018-12-03T15:05:19.265Z,5.63
2018-12-03T15:06:19.228Z,5.63
2018-12-03T15:08:15.612Z,5.63
2018-12-03T15:09:15.552Z,5.63
2018-12-03T15:11:11.084Z,5.63
2018-12-03T15:12:11.043Z,5.63
2018-12-03T15:14:07.560Z,5.63
2018-12-03T15:15:07.508Z,5.63
2018-12-03T15:17:02.946Z,5.63
2018-12-03T15:18:02.907Z,5.63
2018-12-03T15:19:58.923Z,5.63
2018-12-03T15:20:58.870Z,5.63
2018-12-03T15:22:55.781Z,5.63
2018-12-03T15:23:55.737Z,5.63
2018-12-03T15:25:51.630Z,0.00
2018-12-03T15:26:51.584Z,0.00
2018-12-03T15:28:46.963Z,0.00
2018-12-03T15:29:46.911Z,0.00
2018-12-03T15:31:42.692Z,0.00
2018-12-03T15:32:42.649Z,0.00
2018-12-03T15:34:38.069Z,0.00
2018-12-03T15:35:38.013Z,0.00
2018-12-03T15:37:34.314Z,0.00
2018-12-03T15:38:34.271Z,0.00
2018-12-03T15:40:30.033Z,0.00
2018-12-03T15:41:29.979Z,0.00
2018-12-03T15:43:39.156Z,0.00
2018-12-03T15:44:39.116Z,0.00
2018-12-03T15:46:35.423Z,0.00
2018-12-03T15:47:35.378Z,0.00
2018-12-03T15:49:31.698Z,0.00
2018-12-03T15:50:31.649Z,0.00
2018-12-03T15:52:39.929Z,0.00
2018-12-03T15:53:39.883Z,0.00
2018-12-03T15:55:35.269Z,0.00
2018-12-03T15:56:35.210Z,0.00
2018-12-03T15:58:30.996Z,0.00
2018-12-03T15:59:30.956Z,0.00
2018-12-03T16:01:38.624Z,0.00
2018-12-03T16:02:38.664Z,0.00
2018-12-03T16:04:34.924Z,0.00
2018-12-03T16:05:34.871Z,0.00
2018-12-03T16:07:31.102Z,0.00
2018-12-03T16:08:31.059Z,0.00
2018-12-03T16:10:27.887Z,0.00
2018-12-03T16:11:27.837Z,0.00
2018-12-03T16:13:24.396Z,0.00
2018-12-03T16:14:24.354Z,0.00
2018-12-03T16:16:19.777Z,0.00
2018-12-03T16:17:20.225Z,0.00
2018-12-03T16:19:16.823Z,0.00
2018-12-03T16:20:16.778Z,0.00
2018-12-03T16:22:13.101Z,0.00
2018-12-03T16:23:13.037Z,0.00
2018-12-03T16:25:11.416Z,0.00
2018-12-03T16:26:11.352Z,0.00
2018-12-03T16:28:08.008Z,0.00
2018-12-03T16:29:07.965Z,0.00
2018-12-03T16:31:04.324Z,0.00
2018-12-03T16:32:04.267Z,0.00
2018-12-03T16:34:01.407Z,0.00
2018-12-03T16:35:01.365Z,0.00
2018-12-03T16:36:58.030Z,0.00
2018-12-03T16:37:57.977Z,0.00
2018-12-03T16:39:56.586Z,0.00
2018-12-03T16:40:56.544Z,0.00
2018-12-03T16:42:52.074Z,0.00
2018-12-03T16:43:52.018Z,0.00
2018-12-03T16:45:49.040Z,0.00
2018-12-03T16:46:48.984Z,0.00
2018-12-03T16:48:45.357Z,0.00
2018-12-03T16:49:45.316Z,0.00
2018-12-03T16:51:41.789Z,0.00
2018-12-03T16:52:41.739Z,0.00
2018-12-03T16:54:37.200Z,0.00
2018-12-03T16:55:37.156Z,0.00
2018-12-03T16:57:33.680Z,0.00
2018-12-03T16:58:33.630Z,0.00
2018-12-03T17:00:29.952Z,0.00
2018-12-03T17:01:29.906Z,0.00
2018-12-03T17:03:26.364Z,0.00
2018-12-03T17:04:26.312Z,0.00
2018-12-03T17:06:23.302Z,0.00
2018-12-03T17:07:23.245Z,0.00
2018-12-03T17:09:19.016Z,0.00
2018-12-03T17:10:18.974Z,0.00
2018-12-03T17:12:15.535Z,0.00
2018-12-03T17:13:15.479Z,0.00
2018-12-03T17:15:10.850Z,0.00
2018-12-03T17:16:10.809Z,0.00
2018-12-03T17:18:07.144Z,0.00
2018-12-03T17:19:07.088Z,0.00
2018-12-03T17:21:03.987Z,0.00
2018-12-03T17:22:03.933Z,0.00
2018-12-03T17:24:01.301Z,0.00
2018-12-03T17:25:01.247Z,0.00
2018-12-03T17:26:58.948Z,0.00
2018-12-03T17:27:58.905Z,0.00
2018-12-03T17:29:54.288Z,0.00
2018-12-03T17:30:54.232Z,0.00
2018-12-03T17:32:50.951Z,0.00
2018-12-03T17:33:50.895Z,0.00
2018-12-03T17:35:47.335Z,0.00
2018-12-03T17:36:47.289Z,0.00
2018-12-03T17:38:42.951Z,0.00
2018-12-03T17:39:42.895Z,0.00
2018-12-03T17:41:39.241Z,0.00
2018-12-03T17:42:39.192Z,0.00
2018-12-03T17:44:35.930Z,0.00
2018-12-03T17:45:35.875Z,0.00
2018-12-03T17:47:31.279Z,0.00
2018-12-03T17:48:31.239Z,0.00
2018-12-03T17:50:27.112Z,0.00
2018-12-03T17:51:27.058Z,0.00
2018-12-03T17:53:24.236Z,0.00
2018-12-03T17:54:24.182Z,0.00
2018-12-03T17:56:20.511Z,0.00
2018-12-03T17:57:20.464Z,0.00
2018-12-03T17:59:18.492Z,0.00
2018-12-03T18:00:18.438Z,0.00
2018-12-03T18:02:26.445Z,0.00
2018-12-03T18:03:26.406Z,0.00
2018-12-03T18:05:22.823Z,0.00
2018-12-03T18:06:22.766Z,0.00
2018-12-03T18:08:19.229Z,0.00
2018-12-03T18:09:19.176Z,0.00
2018-12-03T18:11:16.477Z,0.00
2018-12-03T18:12:16.424Z,0.00
2018-12-03T18:14:12.916Z,0.00
2018-12-03T18:15:12.864Z,0.00
2018-12-03T18:17:09.259Z,0.00
2018-12-03T18:18:09.258Z,0.00
2018-12-03T18:20:05.855Z,0.00
2018-12-03T18:21:05.800Z,0.00
2018-12-03T18:23:01.680Z,0.00
2018-12-03T18:24:01.609Z,0.00
2018-12-03T18:25:57.402Z,0.00
2018-12-03T18:26:57.351Z,0.00
2018-12-03T18:28:53.151Z,0.00
2018-12-03T18:29:53.103Z,0.00
2018-12-03T18:31:48.723Z,0.00
2018-12-03T18:32:48.775Z,0.00
2018-12-03T18:34:44.466Z,0.00
2018-12-03T18:35:44.422Z,0.00
2018-12-03T18:37:53.660Z,0.00
2018-12-03T18:38:53.617Z,0.00
2018-12-03T18:40:49.985Z,0.00
2018-12-03T18:41:49.929Z,0.00
2018-12-03T18:43:46.263Z,0.00
2018-12-03T18:44:46.223Z,0.00
2018-12-03T18:46:42.692Z,0.00
2018-12-03T18:47:42.620Z,0.00
2018-12-03T18:49:39.138Z,0.00
2018-12-03T18:50:39.092Z,0.00
2018-12-03T18:52:35.503Z,0.00
2018-12-03T18:53:35.452Z,0.00
2018-12-03T18:55:32.535Z,0.00
2018-12-03T18:56:32.463Z,0.00
2018-12-03T18:58:28.987Z,0.00
2018-12-03T18:59:28.942Z,0.00
2018-12-03T19:01:25.782Z,0.00
2018-12-03T19:02:25.708Z,0.00
2018-12-03T19:04:21.365Z,0.00
2018-12-03T19:05:21.329Z,0.00
2018-12-03T19:07:18.153Z,0.00
2018-12-03T19:08:18.099Z,0.00
2018-12-03T19:10:14.242Z,0.00
2018-12-03T19:11:14.199Z,0.00
2018-12-03T19:13:12.119Z,0.00